KRH56 EGBJ-EGVN
Flight info
| Callsign | KRH56 |
|---|---|
| Flight time | 0h 9m |
| Altitude | 7000 |
| Route | NAXAT |
| Aircraft | C56X/M-SDFGLM3ORVWY/SB1 |
Departure
| Time | 2026-04-22 15:03 |
|---|---|
| Airport | Gloucestershire Airport (EGBJ) |
Arrival
| Time | 2026-04-22 15:12 |
|---|---|
| Airport | RAF Brize Norton (EGVN) |
| Time | Latitude | Longitude | Altitude | Speed | Heading |
|---|---|---|---|---|---|
| 2026-04-22 14:59 | 51.89337 | -2.15823 | 92 ft | 0 kts | 81° |
| 2026-04-22 15:00 | 51.89337 | -2.15819 | 94 ft | 2 kts | 78° |
| 2026-04-22 15:01 | 51.89368 | -2.15806 | 92 ft | 11 kts | 337° |
| 2026-04-22 15:01 | 51.89399 | -2.15838 | 93 ft | 0 kts | 321° |
| 2026-04-22 15:01 | 51.89429 | -2.15906 | 92 ft | 24 kts | 302° |
| 2026-04-22 15:01 | 51.89446 | -2.16231 | 92 ft | 38 kts | 264° |
| 2026-04-22 15:02 | 51.89407 | -2.16784 | 91 ft | 57 kts | 263° |
| 2026-04-22 15:02 | 51.89362 | -2.17412 | 73 ft | 56 kts | 263° |
| 2026-04-22 15:02 | 51.89330 | -2.17726 | 67 ft | 8 kts | 277° |
| 2026-04-22 15:02 | 51.89348 | -2.17723 | 68 ft | 7 kts | 93° |
| 2026-04-22 15:03 | 51.89365 | -2.17371 | 73 ft | 65 kts | 83° |
| 2026-04-22 15:03 | 51.89440 | -2.16283 | 93 ft | 130 kts | 83° |
| 2026-04-22 15:03 | 51.89533 | -2.14555 | 457 ft | 172 kts | 86° |
| 2026-04-22 15:03 | 51.89568 | -2.12558 | 1500 ft | 180 kts | 91° |
| 2026-04-22 15:04 | 51.89369 | -2.10546 | 2662 ft | 187 kts | 114° |
| 2026-04-22 15:04 | 51.88372 | -2.09045 | 3633 ft | 214 kts | 146° |
| 2026-04-22 15:04 | 51.86931 | -2.07958 | 4454 ft | 240 kts | 150° |
| 2026-04-22 15:04 | 51.85450 | -2.06823 | 5850 ft | 235 kts | 150° |
| 2026-04-22 15:05 | 51.83992 | -2.05521 | 7078 ft | 246 kts | 145° |
| 2026-04-22 15:05 | 51.82596 | -2.03809 | 7310 ft | 257 kts | 136° |
| 2026-04-22 15:05 | 51.81444 | -2.01636 | 7310 ft | 252 kts | 126° |
| 2026-04-22 15:05 | 51.80404 | -1.99367 | 7309 ft | 251 kts | 127° |
| 2026-04-22 15:06 | 51.79419 | -1.97094 | 7268 ft | 251 kts | 118° |
| 2026-04-22 15:06 | 51.78758 | -1.94447 | 7126 ft | 253 kts | 108° |
| 2026-04-22 15:06 | 51.78430 | -1.91665 | 6924 ft | 251 kts | 99° |
| 2026-04-22 15:06 | 51.78170 | -1.88935 | 6728 ft | 247 kts | 102° |
| 2026-04-22 15:07 | 51.77860 | -1.86199 | 6499 ft | 246 kts | 102° |
| 2026-04-22 15:07 | 51.77427 | -1.83552 | 6194 ft | 242 kts | 116° |
| 2026-04-22 15:07 | 51.76340 | -1.81601 | 5613 ft | 220 kts | 142° |
| 2026-04-22 15:07 | 51.75052 | -1.80486 | 4782 ft | 201 kts | 150° |
| 2026-04-22 15:08 | 51.73814 | -1.79550 | 3930 ft | 194 kts | 149° |
| 2026-04-22 15:08 | 51.72585 | -1.78670 | 3097 ft | 193 kts | 149° |
| 2026-04-22 15:08 | 51.71512 | -1.77680 | 2253 ft | 185 kts | 131° |
| 2026-04-22 15:08 | 51.71069 | -1.75961 | 1967 ft | 159 kts | 87° |
| 2026-04-22 15:09 | 51.71579 | -1.74518 | 1973 ft | 156 kts | 45° |
| 2026-04-22 15:09 | 51.72334 | -1.73458 | 1976 ft | 131 kts | 61° |
| 2026-04-22 15:09 | 51.72470 | -1.72129 | 1943 ft | 116 kts | 90° |
| 2026-04-22 15:09 | 51.72704 | -1.70858 | 1757 ft | 115 kts | 72° |
| 2026-04-22 15:10 | 51.72901 | -1.69665 | 1592 ft | 109 kts | 79° |
| 2026-04-22 15:10 | 51.73130 | -1.68489 | 1417 ft | 108 kts | 72° |
| 2026-04-22 15:10 | 51.73327 | -1.67346 | 1261 ft | 104 kts | 77° |
| 2026-04-22 15:10 | 51.73537 | -1.66212 | 1102 ft | 107 kts | 73° |
| 2026-04-22 15:11 | 51.73753 | -1.65075 | 952 ft | 105 kts | 76° |
| 2026-04-22 15:11 | 51.73946 | -1.63952 | 806 ft | 103 kts | 73° |
| 2026-04-22 15:11 | 51.74167 | -1.62843 | 661 ft | 103 kts | 73° |
| 2026-04-22 15:11 | 51.74356 | -1.61776 | 520 ft | 104 kts | 74° |
| 2026-04-22 15:12 | 51.74561 | -1.60667 | 368 ft | 103 kts | 72° |
| 2026-04-22 15:12 | 51.74758 | -1.59593 | 290 ft | 96 kts | 73° |
| 2026-04-22 15:12 | 51.74939 | -1.58610 | 275 ft | 87 kts | 73° |
| 2026-04-22 15:12 | 51.75049 | -1.58134 | 268 ft | 13 kts | 38° |
| 2026-04-22 15:13 | 51.75183 | -1.58016 | 267 ft | 32 kts | 28° |
| 2026-04-22 15:13 | 51.75352 | -1.57879 | 265 ft | 14 kts | 4° |
| 2026-04-22 15:13 | 51.75393 | -1.57932 | 265 ft | 0 kts | 296° |